地図

経路データ

SID SEASON NUMBER BASIN SUBBASIN NAME ISO_TIME NATURE LAT LON WMO_WIND WMO_PRES WMO_AGENCY TRACK_TYPE DIST2LAND LANDFALL IFLAG USA_AGENCY USA_ATCF_ID USA_LAT USA_LON USA_RECORD USA_STATUS USA_WIND USA_PRES USA_SSHS USA_R34_NE USA_R34_SE USA_R34_SW USA_R34_NW USA_R50_NE USA_R50_SE USA_R50_SW USA_R50_NW USA_R64_NE USA_R64_SE USA_R64_SW USA_R64_NW USA_POCI USA_ROCI USA_RMW USA_EYE TOKYO_LAT TOKYO_LON TOKYO_GRADE TOKYO_WIND TOKYO_PRES TOKYO_R50_DIR TOKYO_R50_LONG TOKYO_R50_SHORT TOKYO_R30_DIR TOKYO_R30_LONG TOKYO_R30_SHORT TOKYO_LAND CMA_LAT CMA_LON CMA_CAT CMA_WIND CMA_PRES HKO_LAT HKO_LON HKO_CAT HKO_WIND HKO_PRES NEWDELHI_LAT NEWDELHI_LON NEWDELHI_GRADE NEWDELHI_WIND NEWDELHI_PRES NEWDELHI_CI NEWDELHI_DP NEWDELHI_POCI REUNION_LAT REUNION_LON REUNION_TYPE REUNION_WIND REUNION_PRES REUNION_TNUM REUNION_CI REUNION_RMW REUNION_R34_NE REUNION_R34_SE REUNION_R34_SW REUNION_R34_NW REUNION_R50_NE REUNION_R50_SE REUNION_R50_SW REUNION_R50_NW REUNION_R64_NE REUNION_R64_SE REUNION_R64_SW REUNION_R64_NW BOM_LAT BOM_LON BOM_TYPE BOM_WIND BOM_PRES BOM_TNUM BOM_CI BOM_RMW BOM_R34_NE BOM_R34_SE BOM_R34_SW BOM_R34_NW BOM_R50_NE BOM_R50_SE BOM_R50_SW BOM_R50_NW BOM_R64_NE BOM_R64_SE BOM_R64_SW BOM_R64_NW BOM_ROCI BOM_POCI BOM_EYE BOM_POS_METHOD BOM_PRES_METHOD NADI_LAT NADI_LON NADI_CAT NADI_WIND NADI_PRES WELLINGTON_LAT WELLINGTON_LON WELLINGTON_WIND WELLINGTON_PRES DS824_LAT DS824_LON DS824_STAGE DS824_WIND DS824_PRES TD9636_LAT TD9636_LON TD9636_STAGE TD9636_WIND TD9636_PRES TD9635_LAT TD9635_LON TD9635_WIND TD9635_PRES TD9635_ROCI NEUMANN_LAT NEUMANN_LON NEUMANN_CLASS NEUMANN_WIND NEUMANN_PRES MLC_LAT MLC_LON MLC_CLASS MLC_WIND MLC_PRES USA_GUST BOM_GUST BOM_GUST_PER REUNION_GUST REUNION_GUST_PER USA_SEAHGT USA_SEARAD_NE USA_SEARAD_SE USA_SEARAD_SW USA_SEARAD_NW STORM_SPEED STORM_DIR
1941190N15151 1941 33 WP MM NOT_NAMED 1941-07-08 21:00:00 NR 14.9000 151.000 main 1945 1940 __________O___ -1 14.9000 151.000 4 5 284
1941190N15151 1941 33 WP MM NOT_NAMED 1941-07-09 00:00:00 NR 14.9627 150.742 main 1949 1945 __________P___ -1 14.9627 150.742 4 5 284
1941190N15151 1941 33 WP MM NOT_NAMED 1941-07-09 03:00:00 NR 15.0301 150.478 main 1945 1943 __________P___ -1 15.0301 150.478 4 5 285
1941190N15151 1941 33 WP MM NOT_NAMED 1941-07-09 06:00:00 NR 15.1076 150.199 main 1951 1949 __________P___ -1 15.1076 150.199 4 6 287
1941190N15151 1941 33 WP MM NOT_NAMED 1941-07-09 09:00:00 NR 15.2000 149.900 main 1957 1955 __________O___ -1 15.2000 149.900 4 6 289
1941190N15151 1941 33 WP MM NOT_NAMED 1941-07-09 12:00:00 NR 15.3106 149.576 main 1964 1962 __________P___ -1 15.3106 149.576 4 7 290
1941190N15151 1941 33 WP MM NOT_NAMED 1941-07-09 15:00:00 NR 15.4349 149.230 main 1970 1970 __________P___ -1 15.4349 149.230 4 7 291
1941190N15151 1941 33 WP MM NOT_NAMED 1941-07-09 18:00:00 NR 15.5668 148.869 main 1989 1987 __________P___ -1 15.5668 148.869 4 8 291
1941190N15151 1941 33 WP MM NOT_NAMED 1941-07-09 21:00:00 NR 15.7000 148.500 main 1997 1997 __________O___ -1 15.7000 148.500 4 8 289
1941190N15151 1941 33 WP MM NOT_NAMED 1941-07-10 00:00:00 NR 15.8209 148.120 main 2006 2006 __________P___ -1 15.8209 148.120 4 8 288
1941190N15151 1941 33 WP MM NOT_NAMED 1941-07-10 03:00:00 NR 15.9425 147.735 main 2016 2016 __________P___ -1 15.9425 147.735 4 8 289
1941190N15151 1941 33 WP MM NOT_NAMED 1941-07-10 06:00:00 NR 16.0678 147.357 main 2038 2038 __________P___ -1 16.0678 147.357 4 8 290
1941190N15151 1941 33 WP MM NOT_NAMED 1941-07-10 09:00:00 NR 16.2000 147.000 main 2049 2049 __________O___ -1 16.2000 147.000 4 7 295
1941190N15151 1941 33 WP MM NOT_NAMED 1941-07-10 12:00:00 NR 16.3625 146.707 main 2072 2072 __________P___ -1 16.3625 146.707 4 6 301
1941190N15151 1941 33 WP MM NOT_NAMED 1941-07-10 15:00:00 NR 16.5291 146.430 main 2083 2083 __________P___ -1 16.5291 146.430 4 6 300
1941190N15151 1941 33 WP MM NOT_NAMED 1941-07-10 18:00:00 NR 16.6812 146.138 main 2106 2104 __________P___ -1 16.6812 146.138 4 7 294
1941190N15151 1941 33 WP MM NOT_NAMED 1941-07-10 21:00:00 NR 16.8000 145.800 main 2104 2088 __________O___ -1 16.8000 145.800 4 7 276
1941190N15151 1941 33 WP MM NOT_NAMED 1941-07-11 00:00:00 NR 16.7557 145.361 main 2088 2075 __________P___ -1 16.7557 145.361 4 9 263
1941190N15151 1941 33 WP MM NOT_NAMED 1941-07-11 03:00:00 NR 16.6931 144.877 main 2075 2054 __________P___ -1 16.6931 144.877 4 9 267
1941190N15151 1941 33 WP MM NOT_NAMED 1941-07-11 06:00:00 NR 16.7088 144.379 main 2054 2013 __________P___ -1 16.7088 144.379 4 10 282
1941190N15151 1941 33 WP MM NOT_NAMED 1941-07-11 09:00:00 NR 16.9000 143.900 main 2013 1941 __________O___ -1 16.9000 143.900 4 11 306
1941190N15151 1941 33 WP MM NOT_NAMED 1941-07-11 12:00:00 NR 17.3843 143.424 main 1941 1863 __________P___ -1 17.3843 143.424 4 15 322
1941190N15151 1941 33 WP MM NOT_NAMED 1941-07-11 15:00:00 NR 18.0480 142.976 main 1863 1764 __________P___ -1 18.0480 142.976 4 16 331
1941190N15151 1941 33 WP MM NOT_NAMED 1941-07-11 18:00:00 NR 18.8126 142.590 main 1764 1670 __________P___ -1 18.8126 142.590 4 17 338
1941190N15151 1941 33 WP MM NOT_NAMED 1941-07-11 21:00:00 NR 19.6000 142.300 main 1670 1589 __________O___ -1 19.6000 142.300 4 16 343
1941190N15151 1941 33 WP MM NOT_NAMED 1941-07-12 00:00:00 NR 20.3084 142.112 main 1589 1513 __________P___ -1 20.3084 142.112 4 15 350
1941190N15151 1941 33 WP MM NOT_NAMED 1941-07-12 03:00:00 NR 21.0217 142.027 main 1513 1441 __________P___ -1 21.0217 142.027 4 14 357
1941190N15151 1941 33 WP MM NOT_NAMED 1941-07-12 06:00:00 NR 21.7242 142.028 main 1441 1374 __________P___ -1 21.7242 142.028 4 14 3
1941190N15151 1941 33 WP MM NOT_NAMED 1941-07-12 09:00:00 NR 22.4000 142.100 main 1374 1318 __________O___ -1 22.4000 142.100 4 13 7
1941190N15151 1941 33 WP MM NOT_NAMED 1941-07-12 12:00:00 NR 23.0205 142.194 main 1318 1263 __________P___ -1 23.0205 142.194 4 12 11
1941190N15151 1941 33 WP MM NOT_NAMED 1941-07-12 15:00:00 NR 23.6149 142.353 main 1268 1214 __________P___ -1 23.6149 142.353 4 12 16
1941190N15151 1941 33 WP MM NOT_NAMED 1941-07-12 18:00:00 NR 24.2018 142.560 main 1217 1159 __________P___ -1 24.2018 142.560 4 13 19
1941190N15151 1941 33 WP MM NOT_NAMED 1941-07-12 21:00:00 NR 24.8000 142.800 main 1159 1100 __________O___ -1 24.8000 142.800 4 13 20
1941190N15151 1941 33 WP MM NOT_NAMED 1941-07-13 00:00:00 NR 25.4357 143.046 main 1100 1044 __________P___ -1 25.4357 143.046 4 14 20
1941190N15151 1941 33 WP MM NOT_NAMED 1941-07-13 03:00:00 NR 26.0851 143.320 main 1034 980 __________P___ -1 26.0851 143.320 4 14 21
1941190N15151 1941 33 WP MM NOT_NAMED 1941-07-13 06:00:00 NR 26.7420 143.609 main 980 918 __________P___ -1 26.7420 143.609 4 14 21
1941190N15151 1941 33 WP MM NOT_NAMED 1941-07-13 09:00:00 NR 27.4000 143.900 main 918 876 __________O___ -1 27.4000 143.900 4 13 22
1941190N15151 1941 33 WP MM NOT_NAMED 1941-07-13 12:00:00 NR 27.9524 144.155 main 870 830 __________P___ -1 27.9524 144.155 4 12 22
1941190N15151 1941 33 WP MM NOT_NAMED 1941-07-13 15:00:00 NR 28.5199 144.413 main 830 783 __________P___ -1 28.5199 144.413 4 13 21
1941190N15151 1941 33 WP MM NOT_NAMED 1941-07-13 18:00:00 NR 29.1773 144.688 main 779 730 __________P___ -1 29.1773 144.688 4 16 19
1941190N15151 1941 33 WP MM NOT_NAMED 1941-07-13 21:00:00 NR 30.0000 145.000 main 721 653 __________O___ -1 30.0000 145.000 4 20 17
1941190N15151 1941 33 WP MM NOT_NAMED 1941-07-14 00:00:00 NR 31.0499 145.367 main 659 596 __________P___ -1 31.0499 145.367 4 24 16
1941190N15151 1941 33 WP MM NOT_NAMED 1941-07-14 03:00:00 NR 32.2688 145.778 main 588 539 __________P___ -1 32.2688 145.778 4 27 16
1941190N15151 1941 33 WP MM NOT_NAMED 1941-07-14 06:00:00 NR 33.6032 146.225 main 537 525 __________P___ -1 33.6032 146.225 4 28 16
1941190N15151 1941 33 WP MM NOT_NAMED 1941-07-14 09:00:00 NR 35.0000 146.700 main 530 528 __________O___ -1 35.0000 146.700 4 30 15
1941190N15151 1941 33 WP MM NOT_NAMED 1941-07-14 12:00:00 NR 36.4589 147.186 main 540 512 __________P___ -1 36.4589 147.186 4 31 15
1941190N15151 1941 33 WP MM NOT_NAMED 1941-07-14 15:00:00 NR 37.9538 147.702 main 512 488 __________P___ -1 37.9538 147.702 4 31 16
1941190N15151 1941 33 WP MM NOT_NAMED 1941-07-14 18:00:00 NR 39.3969 148.242 main 478 391 __________P___ -1 39.3969 148.242 4 29 17
1941190N15151 1941 33 WP MM NOT_NAMED 1941-07-14 21:00:00 NR 40.7000 148.800 main 388 349 __________O___ -1 40.7000 148.800 4 25 19
1941190N15151 1941 33 WP MM NOT_NAMED 1941-07-15 00:00:00 NR 41.7472 149.315 main 350 301 __________P___ -1 41.7472 149.315 4 21 22
1941190N15151 1941 33 WP MM NOT_NAMED 1941-07-15 03:00:00 NR 42.6517 149.845 main 292 246 __________P___ -1 42.6517 149.845 4 19 25
1941190N15151 1941 33 WP MM NOT_NAMED 1941-07-15 06:00:00 NR 43.4808 150.426 main 236 181 __________P___ -1 43.4808 150.426 4 19 29
1941190N15151 1941 33 WP MM NOT_NAMED 1941-07-15 09:00:00 NR 44.3000 151.100 main 181 153 __________O___ -1 44.3000 151.100 4 20 32
1941190N15151 1941 33 WP MM NOT_NAMED 1941-07-15 12:00:00 NR 45.1604 151.900 main 152 152 __________P___ -1 45.1604 151.900 4 21 35
1941190N15151 1941 33 WP MM NOT_NAMED 1941-07-15 15:00:00 NR 46.0585 152.816 main 184 184 __________P___ -1 46.0585 152.816 4 23 36
1941190N15151 1941 33 WP MM NOT_NAMED 1941-07-15 18:00:00 NR 46.9772 153.825 main 277 248 __________P___ -1 46.9772 153.825 4 23 38
1941190N15151 1941 33 WP MM NOT_NAMED 1941-07-15 21:00:00 NR 47.9000 154.900 main 235 __________O___ -1 47.9000 154.900 4 23 38

デジタル台風データ・検索

IBTrACS Databaseについて

本データベースは、米国NOAAが公開する1842年以降の世界の熱帯低気圧のベストトラックデータアーカイブInternational Best Track Archive for Climate Stewardship (IBTrACS)を、ウェブで閲覧しやすい形式に変換したものです。

最終更新日:2021-12-03